Time;durP1;ratioP1;P1;durP2;ratioP2;P2;SDS_P1;SDS_P2;PMS_P1;PMS_P2;Temp;Humidity;BMP_temperature;BMP_pressure;BME280_temperature;BME280_humidity;BME280_pressure;Samples;Min_cycle;Max_cycle;Signal;HPM_P1;HPM_P2
2023/05/30 00:00:00;;;;;;;38.37;6.90;;;21.10;49.80;;;;;;5004612;28;20771;-83
2023/05/30 00:02:27;;;;;;;34.50;6.60;;;21.10;49.80;;;;;;5008339;28;20281;-83
2023/05/30 00:04:55;;;;;;;53.37;8.30;;;21.10;49.80;;;;;;5008501;28;20338;-85
2023/05/30 00:07:23;;;;;;;61.73;9.00;;;21.10;49.90;;;;;;5006922;28;20252;-89
2023/05/30 00:09:50;;;;;;;50.83;8.37;;;21.00;49.80;;;;;;5011509;28;20209;-85
2023/05/30 00:12:17;;;;;;;47.30;7.63;;;21.00;49.80;;;;;;5009074;28;20288;-85
2023/05/30 00:14:44;;;;;;;44.03;7.27;;;21.00;49.80;;;;;;5007845;28;20211;-86
2023/05/30 00:17:11;;;;;;;53.03;8.43;;;21.00;49.80;;;;;;5007107;28;20233;-90
2023/05/30 00:19:38;;;;;;;43.13;7.57;;;21.00;49.80;;;;;;5007706;28;20539;-83
2023/05/30 00:22:05;;;;;;;44.23;7.10;;;20.90;49.70;;;;;;5007937;28;20200;-83
2023/05/30 00:24:34;;;;;;;41.47;7.10;;;20.90;49.70;;;;;;5008401;28;20238;-83
2023/05/30 00:27:01;;;;;;;49.20;8.30;;;20.90;49.70;;;;;;5008487;28;20210;-83
2023/05/30 00:29:28;;;;;;;38.63;6.80;;;20.90;49.70;;;;;;5009031;28;20214;-88
2023/05/30 00:31:55;;;;;;;41.07;7.53;;;20.90;49.70;;;;;;5008917;28;20229;-84
2023/05/30 00:34:22;;;;;;;33.97;6.83;;;20.90;49.70;;;;;;5007551;28;20197;-84
2023/05/30 00:36:49;;;;;;;58.83;8.73;;;20.90;49.70;;;;;;5006520;28;20202;-85
2023/05/30 00:39:16;;;;;;;47.60;7.90;;;20.80;50.20;;;;;;5006005;28;20297;-83
2023/05/30 00:41:45;;;;;;;48.80;7.97;;;20.80;49.60;;;;;;5006686;28;20209;-84
2023/05/30 00:44:11;;;;;;;39.10;6.67;;;20.80;49.60;;;;;;5007390;28;20288;-85
2023/05/30 00:46:38;;;;;;;44.30;7.27;;;20.80;49.60;;;;;;5007249;28;20316;-89
2023/05/30 00:49:05;;;;;;;39.87;7.40;;;20.80;49.60;;;;;;5007893;28;20200;-86
2023/05/30 00:51:33;;;;;;;49.70;8.03;;;20.70;49.60;;;;;;5008246;28;20212;-86
2023/05/30 00:54:03;;;;;;;38.37;6.70;;;20.70;49.50;;;;;;5001705;28;20218;-88
2023/05/30 00:56:31;;;;;;;57.13;8.47;;;20.70;49.50;;;;;;4988285;28;20727;-84
2023/05/30 00:59:02;;;;;;;35.17;6.43;;;20.70;49.60;;;;;;4989087;28;20190;-83
2023/05/30 01:01:32;;;;;;;31.70;6.70;;;20.70;49.60;;;;;;5006774;28;20207;-83
2023/05/30 01:03:59;;;;;;;41.77;7.13;;;20.70;49.60;;;;;;5008011;28;20312;-83
2023/05/30 01:06:29;;;;;;;37.97;7.20;;;20.60;49.60;;;;;;5008688;28;20248;-85
2023/05/30 01:08:58;;;;;;;28.93;6.23;;;20.60;49.60;;;;;;5009207;28;20194;-85
2023/05/30 01:11:35;;;;;;;21.40;5.57;;;20.60;49.60;;;;;;5008349;28;20234;-82
2023/05/30 01:14:12;;;;;;;34.17;6.57;;;20.60;50.20;;;;;;5008269;28;20220;-83
2023/05/30 01:16:44;;;;;;;39.27;7.07;;;20.60;49.60;;;;;;5008058;28;20216;-83
2023/05/30 01:19:28;;;;;;;26.20;5.57;;;20.50;49.50;;;;;;5008280;28;20944;-85
2023/05/30 01:22:09;;;;;;;41.67;6.90;;;20.50;49.50;;;;;;5007781;28;20606;-83
2023/05/30 01:24:43;;;;;;;53.70;7.87;;;20.60;50.20;;;;;;5007494;28;20816;-84
2023/05/30 01:27:16;;;;;;;56.47;8.13;;;20.50;49.50;;;;;;5006766;28;20196;-84
2023/05/30 01:29:47;;;;;;;53.50;8.40;;;20.50;49.60;;;;;;5007920;28;20656;-84
2023/05/30 01:32:14;;;;;;;50.60;7.87;;;20.40;49.50;;;;;;5006636;28;20321;-83
2023/05/30 01:34:41;;;;;;;38.73;6.73;;;20.40;49.50;;;;;;5005927;28;20574;-83
2023/05/30 01:37:08;;;;;;;36.53;6.50;;;20.40;49.60;;;;;;5006793;28;20205;-83
2023/05/30 01:39:35;;;;;;;43.30;7.67;;;20.40;49.60;;;;;;5007232;28;20211;-83
2023/05/30 01:42:11;;;;;;;33.27;6.47;;;20.40;49.60;;;;;;5006698;28;20216;-83
2023/05/30 01:44:45;;;;;;;44.27;7.57;;;20.40;49.60;;;;;;5007794;28;20296;-83
2023/05/30 01:47:19;;;;;;;51.40;8.23;;;20.40;49.60;;;;;;5001337;28;20202;-83
2023/05/30 01:49:55;;;;;;;40.73;7.17;;;20.40;49.60;;;;;;4999523;28;20214;-83
2023/05/30 01:52:31;;;;;;;36.53;6.77;;;20.30;49.50;;;;;;5008964;28;20236;-83
2023/05/30 01:55:03;;;;;;;45.97;7.40;;;20.30;49.50;;;;;;5009264;28;20681;-83
2023/05/30 01:57:31;;;;;;;41.53;7.53;;;20.30;49.50;;;;;;5009810;28;20205;-83
2023/05/30 01:59:59;;;;;;;43.07;7.70;;;20.30;49.50;;;;;;5010775;28;20201;-84
2023/05/30 02:02:27;;;;;;;40.53;7.43;;;20.20;49.50;;;;;;5011037;28;20225;-83
2023/05/30 02:04:54;;;;;;;40.60;7.30;;;20.20;49.50;;;;;;5010516;28;20202;-83
2023/05/30 02:07:22;;;;;;;42.03;7.40;;;20.20;49.50;;;;;;5010858;28;20209;-83
2023/05/30 02:09:49;;;;;;;31.57;6.33;;;20.20;49.50;;;;;;5010397;28;20212;-83
2023/05/30 02:12:16;;;;;;;52.73;8.23;;;20.20;49.50;;;;;;5000746;28;20702;-83
2023/05/30 02:14:43;;;;;;;39.03;7.37;;;20.20;49.50;;;;;;5009271;28;20202;-83
2023/05/30 02:17:11;;;;;;;42.27;7.60;;;20.20;49.60;;;;;;5007924;28;20196;-83
2023/05/30 02:19:39;;;;;;;30.10;6.23;;;20.10;49.50;;;;;;5009770;28;20205;-84
2023/05/30 02:22:08;;;;;;;36.53;6.97;;;20.10;49.50;;;;;;5008914;28;20197;-83
2023/05/30 02:24:35;;;;;;;38.37;7.10;;;20.10;49.50;;;;;;5009931;28;20292;-84
2023/05/30 02:27:02;;;;;;;41.90;7.57;;;20.10;49.50;;;;;;5010990;28;20664;-83
2023/05/30 02:29:29;;;;;;;44.87;7.97;;;20.10;49.50;;;;;;5008729;28;20317;-83
2023/05/30 02:31:56;;;;;;;45.60;7.50;;;20.10;49.60;;;;;;5009198;28;20665;-84
2023/05/30 02:34:23;;;;;;;29.93;6.07;;;20.10;49.60;;;;;;5010110;28;20197;-85
2023/05/30 02:36:51;;;;;;;39.83;6.97;;;20.10;49.60;;;;;;5010791;28;20205;-83
2023/05/30 02:39:18;;;;;;;27.57;6.50;;;20.00;49.50;;;;;;5010424;28;20296;-84
2023/05/30 02:41:45;;;;;;;37.93;6.97;;;20.10;49.60;;;;;;5009729;28;20208;-84
2023/05/30 02:44:12;;;;;;;34.30;6.50;;;20.00;49.50;;;;;;5005993;28;20292;-84
2023/05/30 02:46:39;;;;;;;47.17;7.43;;;20.00;49.50;;;;;;5009668;28;22058;-83
2023/05/30 02:49:06;;;;;;;38.97;7.17;;;20.00;49.50;;;;;;5010419;28;20225;-83
2023/05/30 02:51:33;;;;;;;40.83;7.30;;;20.00;49.50;;;;;;5010793;28;20561;-83
2023/05/30 02:54:01;;;;;;;51.33;7.43;;;20.00;49.50;;;;;;4991710;28;20202;-83
2023/05/30 02:56:28;;;;;;;36.23;6.30;;;19.90;49.40;;;;;;4990951;28;20212;-83
2023/05/30 02:58:56;;;;;;;35.50;6.67;;;19.90;49.50;;;;;;4995667;28;20206;-83
2023/05/30 03:01:23;;;;;;;30.63;6.40;;;19.90;49.50;;;;;;5010600;28;20217;-86
2023/05/30 03:03:50;;;;;;;20.73;5.70;;;19.90;49.50;;;;;;5009638;28;20285;-83
2023/05/30 03:06:18;;;;;;;31.80;6.10;;;19.90;49.40;;;;;;5010489;28;20194;-85
2023/05/30 03:08:45;;;;;;;29.40;6.47;;;19.90;49.50;;;;;;5010083;28;20209;-82
2023/05/30 03:11:14;;;;;;;23.57;5.50;;;19.90;49.50;;;;;;5010950;28;20224;-83
2023/05/30 03:13:41;;;;;;;41.63;6.90;;;19.80;49.40;;;;;;5010209;28;20257;-84
2023/05/30 03:16:08;;;;;;;38.90;7.17;;;19.80;49.50;;;;;;5008342;28;20206;-89
2023/05/30 03:18:35;;;;;;;32.23;6.70;;;19.80;49.40;;;;;;5009398;28;20209;-87
2023/05/30 03:21:01;;;;;;;50.77;7.73;;;19.80;49.50;;;;;;5008372;28;20210;-83
2023/05/30 03:23:28;;;;;;;51.47;8.07;;;19.80;49.50;;;;;;5008863;28;20204;-83
2023/05/30 03:25:55;;;;;;;56.20;8.53;;;19.80;49.50;;;;;;5008909;28;20294;-83
2023/05/30 03:28:24;;;;;;;52.40;8.13;;;19.80;49.50;;;;;;5007441;28;20213;-84
2023/05/30 03:30:55;;;;;;;50.90;8.17;;;19.80;49.50;;;;;;5008235;28;20292;-83
2023/05/30 03:33:23;;;;;;;47.30;7.57;;;19.80;49.50;;;;;;5008933;28;20217;-83
2023/05/30 03:35:50;;;;;;;49.07;7.83;;;19.70;49.40;;;;;;5009102;28;20572;-86
2023/05/30 03:38:18;;;;;;;37.00;6.73;;;19.80;49.50;;;;;;5006761;28;20209;-84
2023/05/30 03:40:45;;;;;;;41.20;7.03;;;19.70;49.50;;;;;;5008883;28;20229;-88
2023/05/30 03:43:12;;;;;;;43.30;7.37;;;19.70;49.50;;;;;;5008298;28;20288;-84
2023/05/30 03:45:40;;;;;;;40.23;6.93;;;19.70;49.40;;;;;;5005517;28;20672;-83
2023/05/30 03:48:07;;;;;;;39.93;7.03;;;19.70;49.40;;;;;;5009251;28;20201;-86
2023/05/30 03:50:34;;;;;;;46.70;7.33;;;19.70;49.50;;;;;;5006080;28;20202;-86
2023/05/30 03:53:01;;;;;;;41.97;7.53;;;19.70;49.50;;;;;;5009699;28;20217;-84
2023/05/30 03:55:28;;;;;;;43.57;7.30;;;19.60;49.40;;;;;;5011328;28;20280;-82
2023/05/30 03:57:54;;;;;;;57.97;8.63;;;19.60;49.40;;;;;;5009104;28;20284;-85
2023/05/30 04:00:21;;;;;;;43.20;7.47;;;19.60;49.40;;;;;;5008162;28;20598;-83
2023/05/30 04:02:51;;;;;;;46.07;7.50;;;19.60;49.40;;;;;;5008718;28;20225;-83
2023/05/30 04:05:18;;;;;;;32.97;6.57;;;19.60;49.40;;;;;;5008113;28;20213;-83
2023/05/30 04:07:45;;;;;;;38.73;7.43;;;19.50;49.40;;;;;;5008926;28;20198;-83
2023/05/30 04:10:12;;;;;;;40.13;6.70;;;19.50;49.40;;;;;;5008606;28;20281;-85
2023/05/30 04:12:39;;;;;;;31.90;6.33;;;19.60;49.40;;;;;;5008270;28;20308;-83
2023/05/30 04:15:07;;;;;;;43.87;7.13;;;19.50;49.40;;;;;;5007530;28;20321;-83
2023/05/30 04:17:34;;;;;;;33.53;6.60;;;19.50;49.40;;;;;;5008406;28;20522;-83
2023/05/30 04:20:04;;;;;;;46.57;7.47;;;19.50;49.40;;;;;;5006581;28;20566;-85
2023/05/30 04:22:32;;;;;;;42.00;7.53;;;19.50;49.40;;;;;;5004331;28;20202;-83
2023/05/30 04:24:59;;;;;;;57.67;8.27;;;19.50;49.40;;;;;;5008451;28;20201;-83
2023/05/30 04:27:26;;;;;;;41.53;7.40;;;19.40;49.40;;;;;;5008721;28;20208;-83
2023/05/30 04:29:54;;;;;;;46.07;7.57;;;19.40;49.40;;;;;;5009270;28;20197;-83
2023/05/30 04:32:20;;;;;;;41.00;6.73;;;19.50;49.50;;;;;;5000799;28;20292;-83
2023/05/30 04:34:48;;;;;;;42.20;6.97;;;19.40;49.40;;;;;;5007097;28;20201;-82
2023/05/30 04:37:18;;;;;;;42.60;7.47;;;19.40;49.40;;;;;;5008688;28;20512;-83
2023/05/30 04:39:45;;;;;;;33.07;6.97;;;19.40;49.50;;;;;;5008786;28;20252;-86
2023/05/30 04:42:12;;;;;;;50.27;8.17;;;19.40;49.50;;;;;;5007435;28;20704;-82
2023/05/30 04:44:39;;;;;;;36.50;6.93;;;19.40;49.50;;;;;;5008827;28;20559;-83
2023/05/30 04:47:07;;;;;;;38.23;7.13;;;19.30;49.50;;;;;;5008448;28;20217;-83
2023/05/30 04:49:39;;;;;;;36.80;7.33;;;19.30;49.50;;;;;;5008374;28;20658;-83
2023/05/30 04:52:08;;;;;;;39.83;6.90;;;19.30;49.50;;;;;;5006010;28;20233;-82
2023/05/30 04:54:36;;;;;;;42.03;7.87;;;19.30;49.50;;;;;;5007707;28;20289;-82
2023/05/30 04:57:03;;;;;;;54.97;9.83;;;19.30;49.50;;;;;;5006405;28;20304;-83
2023/05/30 04:59:30;;;;;;;53.83;9.30;;;19.30;49.60;;;;;;5007688;28;20573;-84
2023/05/30 05:01:57;;;;;;;43.43;8.70;;;19.30;49.60;;;;;;5007290;28;20205;-84
2023/05/30 05:04:24;;;;;;;49.27;9.37;;;19.30;49.60;;;;;;5008071;28;20198;-86
2023/05/30 05:06:51;;;;;;;30.43;7.17;;;19.30;49.70;;;;;;5008518;28;20187;-84
2023/05/30 05:09:18;;;;;;;53.07;9.37;;;19.30;49.80;;;;;;5008654;28;20236;-85
2023/05/30 05:11:46;;;;;;;45.03;8.10;;;19.30;49.80;;;;;;5004729;28;20233;-84
2023/05/30 05:14:13;;;;;;;63.27;9.77;;;19.30;49.90;;;;;;5007262;28;20259;-89
2023/05/30 05:16:40;;;;;;;35.23;7.07;;;19.30;50.00;;;;;;5004678;28;20205;-84
2023/05/30 05:19:09;;;;;;;39.60;7.77;;;19.30;50.00;;;;;;5008343;28;20227;-84
2023/05/30 05:21:36;;;;;;;38.13;7.37;;;19.30;50.00;;;;;;5008519;28;20240;-85
2023/05/30 05:24:04;;;;;;;42.27;7.83;;;19.30;50.00;;;;;;5008520;28;20267;-84
2023/05/30 05:26:31;;;;;;;58.50;9.03;;;19.30;50.00;;;;;;5009878;28;20324;-84
2023/05/30 05:29:00;;;;;;;42.00;7.90;;;19.30;50.00;;;;;;5012671;28;20289;-84
2023/05/30 05:31:27;;;;;;;26.40;6.47;;;19.30;50.00;;;;;;5012352;28;20212;-85
2023/05/30 05:33:54;;;;;;;26.37;6.37;;;19.30;50.00;;;;;;5013835;28;20285;-90
2023/05/30 05:36:22;;;;;;;35.93;7.13;;;19.30;50.10;;;;;;5012295;28;20201;-88
2023/05/30 05:38:50;;;;;;;45.30;8.00;;;19.30;50.80;;;;;;5011327;28;20221;-84
2023/05/30 05:41:17;;;;;;;49.47;8.30;;;19.20;50.00;;;;;;5011765;28;20208;-84
2023/05/30 05:43:43;;;;;;;43.23;7.47;;;19.30;50.00;;;;;;5012033;28;20706;-86
2023/05/30 05:46:12;;;;;;;44.27;8.13;;;19.30;49.90;;;;;;5009775;28;20319;-84
2023/05/30 05:48:39;;;;;;;49.10;8.17;;;19.30;49.90;;;;;;5009280;28;20209;-85
2023/05/30 05:51:06;;;;;;;45.93;7.73;;;19.30;49.90;;;;;;5010102;28;20694;-84
2023/05/30 05:53:33;;;;;;;37.03;7.67;;;19.20;49.80;;;;;;5011572;28;20316;-84
2023/05/30 05:56:00;;;;;;;38.80;7.20;;;19.20;49.80;;;;;;5012004;28;20201;-87
2023/05/30 05:58:27;;;;;;;65.37;9.37;;;19.20;49.90;;;;;;5010556;28;20606;-88
2023/05/30 06:00:54;;;;;;;62.53;9.47;;;19.20;49.90;;;;;;5011575;28;20204;-84
2023/05/30 06:03:22;;;;;;;37.57;7.07;;;19.20;49.90;;;;;;5011550;28;20827;-85
2023/05/30 06:05:49;;;;;;;36.43;7.23;;;19.20;49.90;;;;;;5011941;28;20373;-90
2023/05/30 06:08:16;;;;;;;42.40;7.73;;;19.20;50.00;;;;;;5010769;28;20197;-88
2023/05/30 06:10:43;;;;;;;42.23;8.10;;;19.20;50.00;;;;;;5011768;28;20392;-84
2023/05/30 06:13:10;;;;;;;40.17;7.57;;;19.10;50.00;;;;;;5011442;28;20225;-84
2023/05/30 06:15:36;;;;;;;32.47;6.80;;;19.10;50.00;;;;;;5011588;28;20689;-84
2023/05/30 06:18:05;;;;;;;39.17;7.43;;;19.10;50.10;;;;;;5011337;28;20190;-83
2023/05/30 06:20:34;;;;;;;57.47;9.33;;;19.10;50.10;;;;;;5010239;28;20202;-84
2023/05/30 06:23:01;;;;;;;33.93;6.97;;;19.20;50.20;;;;;;5010939;28;20202;-87
2023/05/30 06:25:30;;;;;;;44.80;7.80;;;19.10;50.20;;;;;;5012272;28;20281;-84
2023/05/30 06:27:58;;;;;;;35.40;7.17;;;19.20;50.20;;;;;;5011460;28;20688;-84
2023/05/30 06:30:25;;;;;;;31.37;7.63;;;19.20;50.30;;;;;;5007436;28;20205;-85
2023/05/30 06:32:53;;;;;;;30.00;7.17;;;19.10;50.30;;;;;;5011820;28;20228;-84
2023/05/30 06:35:20;;;;;;;42.83;8.53;;;19.20;50.40;;;;;;5010396;28;20202;-85
2023/05/30 06:37:48;;;;;;;36.00;7.27;;;19.20;50.40;;;;;;5009535;28;20190;-85
2023/05/30 06:40:15;;;;;;;26.17;7.03;;;19.20;50.40;;;;;;5009909;28;20305;-86
2023/05/30 06:42:42;;;;;;;43.67;8.30;;;19.10;50.30;;;;;;5010628;28;20197;-86
2023/05/30 06:45:10;;;;;;;43.10;8.07;;;19.20;50.40;;;;;;5009622;28;20288;-86
2023/05/30 06:47:37;;;;;;;31.03;7.57;;;19.20;50.40;;;;;;5009694;28;20626;-85
2023/05/30 06:50:04;;;;;;;24.43;6.87;;;19.20;50.40;;;;;;5009009;28;20683;-84
2023/05/30 06:52:31;;;;;;;36.43;7.30;;;19.20;50.40;;;;;;5010670;28;20701;-86
2023/05/30 06:54:59;;;;;;;30.97;7.40;;;19.20;50.40;;;;;;5011227;28;20549;-87
2023/05/30 06:57:26;;;;;;;27.43;7.57;;;19.20;50.40;;;;;;5011057;28;20244;-90
2023/05/30 06:59:53;;;;;;;26.83;6.97;;;19.20;50.40;;;;;;5010889;28;20284;-87
2023/05/30 07:02:20;;;;;;;30.90;7.70;;;19.20;50.40;;;;;;5011621;28;20716;-89
2023/05/30 07:04:47;;;;;;;40.07;8.20;;;19.20;50.40;;;;;;5011454;28;20208;-87
2023/05/30 07:07:14;;;;;;;39.23;8.03;;;19.20;50.50;;;;;;5010850;28;20651;-86
2023/05/30 07:09:41;;;;;;;31.20;7.23;;;19.20;50.40;;;;;;5009163;28;20206;-89
2023/05/30 07:12:10;;;;;;;39.53;8.10;;;19.30;50.50;;;;;;5012826;28;20189;-96
2023/05/30 07:14:37;;;;;;;32.80;7.60;;;19.30;50.50;;;;;;5003609;28;20206;-92
2023/05/30 07:17:06;;;;;;;40.07;8.87;;;19.40;50.50;;;;;;4992673;28;20715;-96
2023/05/30 07:19:33;;;;;;;40.97;8.57;;;19.30;50.40;;;;;;4996284;28;20193;-94
2023/05/30 07:22:00;;;;;;;30.43;7.60;;;19.30;50.40;;;;;;5010793;28;20213;-94
2023/05/30 07:24:27;;;;;;;37.60;8.57;;;19.30;50.50;;;;;;5021662;28;20193;-89
2023/05/30 07:26:55;;;;;;;39.50;8.33;;;19.30;50.40;;;;;;5034635;28;20217;-89
2023/05/30 07:29:24;;;;;;;41.97;9.33;;;19.30;50.40;;;;;;5016656;28;20199;-90
2023/05/30 07:31:52;;;;;;;26.77;7.93;;;19.30;50.50;;;;;;5029032;28;20661;-87
2023/05/30 07:34:22;;;;;;;21.60;7.47;;;19.30;50.50;;;;;;5025597;28;20226;-86
2023/05/30 07:36:59;;;;;;;31.33;8.43;;;19.30;50.60;;;;;;5018157;28;20289;-96
2023/05/30 07:39:32;;;;;;;36.67;8.57;;;19.30;50.60;;;;;;5013611;28;20904;-88
2023/05/30 07:42:01;;;;;;;40.97;8.80;;;19.40;50.50;;;;;;5013961;28;20237;-93
2023/05/30 07:44:30;;;;;;;28.30;8.07;;;19.40;50.50;;;;;;5012392;28;20209;-90
2023/05/30 07:46:59;;;;;;;36.20;8.70;;;19.40;50.60;;;;;;5011682;28;20304;-88
2023/05/30 07:49:26;;;;;;;28.13;7.70;;;19.50;50.60;;;;;;5008902;28;20205;-87
2023/05/30 07:51:53;;;;;;;29.30;7.93;;;19.40;50.60;;;;;;5012338;28;20196;-96
2023/05/30 07:54:21;;;;;;;23.50;7.10;;;19.40;50.70;;;;;;5017275;28;20701;-85
2023/05/30 07:56:48;;;;;;;21.23;7.43;;;19.50;50.80;;;;;;5018972;28;20221;-88
2023/05/30 07:59:15;;;;;;;35.77;8.10;;;19.50;50.70;;;;;;5017463;28;20217;-95
2023/05/30 08:01:45;;;;;;;36.23;8.37;;;19.50;50.80;;;;;;5013059;28;20308;-94
2023/05/30 08:04:11;;;;;;;35.87;8.40;;;19.50;50.70;;;;;;5017968;28;20244;-95
2023/05/30 08:06:38;;;;;;;27.97;8.03;;;19.50;50.70;;;;;;5013666;28;20204;-87
2023/05/30 08:09:06;;;;;;;33.30;8.43;;;19.60;50.80;;;;;;5011042;28;20575;-85
2023/05/30 08:11:34;;;;;;;50.50;9.57;;;19.60;50.80;;;;;;5010302;28;20309;-87
2023/05/30 08:14:01;;;;;;;38.37;8.40;;;19.60;50.80;;;;;;5014757;28;20237;-93
2023/05/30 08:16:29;;;;;;;30.57;7.53;;;19.70;50.90;;;;;;5025117;28;20242;-93
2023/05/30 08:19:00;;;;;;;28.60;7.47;;;19.70;50.90;;;;;;5017982;28;20546;-90
2023/05/30 08:21:28;;;;;;;21.67;6.97;;;19.70;50.90;;;;;;5023814;28;20307;-95
2023/05/30 08:24:01;;;;;;;40.97;8.87;;;19.70;50.90;;;;;;5026567;28;20206;-91
2023/05/30 08:26:30;;;;;;;25.00;7.40;;;19.70;51.00;;;;;;5009896;28;20298;-87
2023/05/30 08:29:00;;;;;;;22.80;7.30;;;19.80;50.90;;;;;;5011558;28;20198;-96
2023/05/30 08:31:27;;;;;;;35.20;7.83;;;19.80;50.90;;;;;;5020072;28;20277;-96
2023/05/30 08:33:54;;;;;;;37.47;8.03;;;19.80;50.90;;;;;;5015933;28;20239;-94
2023/05/30 08:36:38;;;;;;;23.53;6.93;;;19.80;51.50;;;;;;5029987;28;20864;-93
2023/05/30 08:39:05;;;;;;;32.70;7.53;;;19.90;51.10;;;;;;5030084;28;20185;-85
2023/05/30 08:41:33;;;;;;;30.40;7.17;;;19.90;50.90;;;;;;5020693;28;20201;-86
2023/05/30 08:44:03;;;;;;;28.97;7.23;;;19.90;50.90;;;;;;5016164;28;20288;-86
2023/05/30 08:46:30;;;;;;;18.20;6.30;;;19.90;51.00;;;;;;5014081;28;20206;-85
2023/05/30 08:48:59;;;;;;;29.67;7.07;;;20.00;51.00;;;;;;5015615;28;20219;-85
2023/05/30 08:51:32;;;;;;;18.50;6.17;;;20.00;51.00;;;;;;5020908;28;20256;-86
2023/05/30 08:54:02;;;;;;;22.43;6.87;;;20.00;51.10;;;;;;5001213;28;20280;-86
2023/05/30 08:56:33;;;;;;;29.70;7.27;;;20.10;51.60;;;;;;5008373;28;20267;-86
2023/05/30 08:59:05;;;;;;;23.57;6.90;;;20.10;51.10;;;;;;5014293;28;20198;-87
2023/05/30 09:01:32;;;;;;;31.67;7.60;;;20.10;51.10;;;;;;5013351;28;20276;-86
2023/05/30 09:04:00;;;;;;;25.40;7.10;;;20.10;51.00;;;;;;5010324;28;20186;-86
2023/05/30 09:06:27;;;;;;;27.83;7.67;;;20.10;51.10;;;;;;5009264;28;20217;-85
2023/05/30 09:08:55;;;;;;;30.47;8.00;;;20.20;51.10;;;;;;5009143;28;20197;-85
2023/05/30 09:11:25;;;;;;;45.03;9.23;;;20.20;51.20;;;;;;4997163;28;20230;-86
2023/05/30 09:13:54;;;;;;;38.77;8.30;;;20.20;51.30;;;;;;5008058;28;20237;-88
2023/05/30 09:16:22;;;;;;;49.33;8.87;;;20.30;51.30;;;;;;4995590;28;20242;-86
2023/05/30 09:18:51;;;;;;;36.97;8.40;;;20.30;51.40;;;;;;5001551;28;20290;-86
2023/05/30 09:21:18;;;;;;;24.93;6.93;;;20.30;51.40;;;;;;5014303;28;20554;-88
2023/05/30 09:23:47;;;;;;;31.47;7.83;;;20.30;52.00;;;;;;5024753;28;20224;-86
2023/05/30 09:26:18;;;;;;;23.50;6.33;;;20.40;51.50;;;;;;5016295;28;20221;-86
2023/05/30 09:28:48;;;;;;;15.33;6.53;;;20.40;51.50;;;;;;5011260;28;20263;-85
2023/05/30 09:31:22;;;;;;;30.83;7.27;;;20.40;51.50;;;;;;5010371;28;20233;-86
2023/05/30 09:33:53;;;;;;;35.50;8.17;;;20.50;51.60;;;;;;5010040;28;20756;-86
2023/05/30 09:36:21;;;;;;;28.07;7.40;;;20.50;51.60;;;;;;5011383;28;20206;-87
2023/05/30 09:38:56;;;;;;;26.57;7.20;;;20.50;51.60;;;;;;5008483;28;20233;-86
2023/05/30 09:41:23;;;;;;;27.63;7.40;;;20.60;51.70;;;;;;5005680;28;20665;-87
2023/05/30 09:43:53;;;;;;;25.30;6.87;;;20.60;51.70;;;;;;5007923;28;20209;-86
2023/05/30 09:46:22;;;;;;;25.33;7.43;;;20.70;51.80;;;;;;5006955;28;20231;-85
2023/05/30 09:48:49;;;;;;;32.53;7.27;;;20.70;51.70;;;;;;5012066;28;20670;-87
2023/05/30 09:51:18;;;;;;;47.33;8.67;;;20.70;51.70;;;;;;5013583;28;20305;-86
2023/05/30 09:54:01;;;;;;;29.37;7.03;;;20.80;51.90;;;;;;5013335;28;20241;-90
2023/05/30 09:56:36;;;;;;;34.20;7.47;;;20.80;51.90;;;;;;5009518;28;20212;-87
2023/05/30 09:59:07;;;;;;;40.17;8.87;;;20.90;52.00;;;;;;5009551;28;20722;-87
2023/05/30 10:04:23;;;;;;;32.83;7.43;;;20.90;51.80;;;;;;5002877;28;20206;-88
2023/05/30 10:06:52;;;;;;;38.70;8.20;;;21.00;51.90;;;;;;4996061;28;20193;-87
2023/05/30 10:09:21;;;;;;;35.97;8.17;;;21.00;51.90;;;;;;5009139;28;20206;-87
2023/05/30 10:11:48;;;;;;;41.73;8.50;;;21.00;51.80;;;;;;5010666;28;20656;-87
2023/05/30 10:14:17;;;;;;;44.37;9.10;;;21.00;51.80;;;;;;5012734;28;20235;-87
2023/05/30 10:16:51;;;;;;;35.10;8.07;;;21.10;51.90;;;;;;5004875;28;20196;-87
2023/05/30 10:19:29;;;;;;;39.03;8.27;;;21.20;52.10;;;;;;5012562;28;20583;-86
2023/05/30 10:21:56;;;;;;;48.27;8.77;;;21.20;52.00;;;;;;5013010;28;20686;-87
2023/05/30 10:24:23;;;;;;;52.63;8.83;;;21.30;52.00;;;;;;5012383;28;20296;-86
2023/05/30 10:26:55;;;;;;;49.57;8.77;;;21.30;52.00;;;;;;5011813;28;20206;-88
2023/05/30 10:29:28;;;;;;;42.20;8.30;;;21.30;52.00;;;;;;5012897;28;20212;-87
2023/05/30 10:31:56;;;;;;;37.27;8.07;;;21.40;52.00;;;;;;5012067;28;20617;-87
2023/05/30 10:34:38;;;;;;;36.27;7.83;;;21.40;52.10;;;;;;5011750;28;20228;-87
2023/05/30 10:37:06;;;;;;;41.20;7.90;;;21.40;52.10;;;;;;5011655;28;20227;-87
2023/05/30 10:39:41;;;;;;;42.17;8.13;;;21.50;52.10;;;;;;5010478;28;20198;-87
2023/05/30 10:42:15;;;;;;;27.37;7.20;;;21.50;52.10;;;;;;5004350;28;20204;-86
2023/05/30 10:44:54;;;;;;;42.23;8.00;;;21.60;52.10;;;;;;5012527;28;20212;-89
2023/05/30 10:47:33;;;;;;;35.50;7.50;;;21.60;52.20;;;;;;5012155;28;20707;-87
2023/05/30 10:50:07;;;;;;;35.87;7.77;;;21.60;52.10;;;;;;5017811;28;20288;-90
2023/05/30 10:52:35;;;;;;;30.13;7.13;;;21.70;52.20;;;;;;5015963;28;20737;-90
2023/05/30 10:55:09;;;;;;;31.67;7.17;;;21.70;52.10;;;;;;5024902;28;20236;-87
2023/05/30 10:57:36;;;;;;;28.63;7.40;;;21.80;52.20;;;;;;5024144;28;20728;-86
2023/05/30 11:00:18;;;;;;;40.40;7.33;;;21.80;52.20;;;;;;5020905;28;20241;-86
2023/05/30 11:02:51;;;;;;;31.53;7.17;;;21.80;52.20;;;;;;5012976;28;20205;-86
2023/05/30 11:05:30;;;;;;;59.30;8.70;;;21.90;52.30;;;;;;5011673;28;20213;-86
2023/05/30 11:08:00;;;;;;;40.17;7.93;;;21.90;52.20;;;;;;5011284;28;20201;-86
2023/05/30 11:10:29;;;;;;;36.63;7.07;;;22.00;52.20;;;;;;5011925;28;20210;-86
2023/05/30 11:13:14;;;;;;;39.07;7.83;;;22.00;52.20;;;;;;5011894;28;20287;-86
2023/05/30 11:15:46;;;;;;;42.57;8.13;;;22.00;52.30;;;;;;5010506;28;20232;-86
2023/05/30 11:18:17;;;;;;;31.87;7.20;;;22.10;52.20;;;;;;5010049;28;20749;-86
2023/05/30 11:20:53;;;;;;;35.10;7.33;;;22.10;52.30;;;;;;5011472;28;20999;-86
2023/05/30 11:23:22;;;;;;;26.43;6.10;;;22.20;52.40;;;;;;5010803;28;20290;-86
2023/05/30 11:25:49;;;;;;;35.93;6.87;;;22.20;52.30;;;;;;5009438;28;20562;-86
2023/05/30 11:28:18;;;;;;;33.40;7.03;;;22.20;52.30;;;;;;5010928;28;20740;-86
2023/05/30 11:30:47;;;;;;;35.97;6.70;;;22.30;52.40;;;;;;5009681;28;20244;-86
2023/05/30 11:33:16;;;;;;;49.17;8.47;;;22.30;52.40;;;;;;5010543;28;20206;-86
2023/05/30 11:35:45;;;;;;;35.87;7.50;;;22.30;52.30;;;;;;5010414;28;20670;-86
2023/05/30 11:38:18;;;;;;;37.57;7.67;;;22.30;52.30;;;;;;5011526;28;20198;-86
2023/05/30 11:40:45;;;;;;;37.87;7.57;;;22.40;52.40;;;;;;5004893;28;20213;-86
2023/05/30 11:43:17;;;;;;;42.57;7.23;;;22.40;52.30;;;;;;5001430;28;20211;-86
2023/05/30 11:45:47;;;;;;;30.60;6.27;;;22.40;52.30;;;;;;4998242;28;20201;-86
2023/05/30 11:48:14;;;;;;;35.60;7.07;;;22.50;52.30;;;;;;5010769;28;20285;-86
2023/05/30 11:50:42;;;;;;;34.03;6.97;;;22.50;52.30;;;;;;5010969;28;20205;-86
2023/05/30 11:53:13;;;;;;;30.57;6.73;;;22.50;52.40;;;;;;5010872;28;20205;-86
2023/05/30 11:55:45;;;;;;;33.50;6.53;;;22.60;52.40;;;;;;5013013;28;20242;-86
2023/05/30 11:58:14;;;;;;;33.23;6.90;;;22.60;52.40;;;;;;5010070;28;20271;-85
2023/05/30 12:00:42;;;;;;;33.93;6.63;;;22.60;52.40;;;;;;5010355;28;20221;-86
2023/05/30 12:03:16;;;;;;;34.00;7.13;;;22.60;52.40;;;;;;5010484;28;20209;-86
2023/05/30 12:05:43;;;;;;;37.47;7.30;;;22.60;52.30;;;;;;5010483;28;20213;-86
2023/05/30 12:08:12;;;;;;;37.37;6.77;;;22.70;52.40;;;;;;5012406;28;20196;-86
2023/05/30 12:10:39;;;;;;;38.17;6.97;;;22.70;52.40;;;;;;5010384;28;20220;-86
2023/05/30 12:13:08;;;;;;;39.53;7.50;;;22.80;52.50;;;;;;5010266;28;20857;-86
2023/05/30 12:15:37;;;;;;;35.13;6.83;;;22.80;52.40;;;;;;5009230;28;20771;-86
2023/05/30 12:18:05;;;;;;;51.30;8.60;;;22.80;52.40;;;;;;5010218;28;20307;-86
2023/05/30 12:20:42;;;;;;;73.77;10.37;;;22.80;52.40;;;;;;5008587;28;20212;-86
2023/05/30 12:23:11;;;;;;;50.13;8.73;;;22.90;52.50;;;;;;5007704;28;20209;-87
2023/05/30 12:25:38;;;;;;;38.47;6.90;;;22.90;52.40;;;;;;5009118;28;20217;-86
2023/05/30 12:28:07;;;;;;;31.93;7.07;;;23.00;52.50;;;;;;5013034;28;20210;-87
2023/05/30 12:30:37;;;;;;;37.23;7.10;;;23.00;52.40;;;;;;5008041;28;20642;-87
2023/05/30 12:33:18;;;;;;;44.20;8.47;;;23.00;52.50;;;;;;4991713;28;20229;-87
2023/05/30 12:35:47;;;;;;;37.30;7.63;;;23.00;52.50;;;;;;4999849;28;20236;-87
2023/05/30 12:38:33;;;;;;;34.10;7.00;;;23.10;52.70;;;;;;5007570;28;20209;-87
2023/05/30 12:41:00;;;;;;;38.07;7.07;;;23.10;52.70;;;;;;5011688;28;20202;-88
2023/05/30 12:43:28;;;;;;;36.93;6.90;;;23.20;52.70;;;;;;5010531;28;20204;-88
2023/05/30 12:46:00;;;;;;;32.27;6.53;;;23.30;52.70;;;;;;5009698;28;20249;-88